createdAt,value
2022-12-28T00:02:18.452Z,100632.72
2022-12-28T00:05:06.883Z,100625.66
2022-12-28T00:07:54.902Z,100633.84
2022-12-28T00:11:09.463Z,100623.59
2022-12-28T00:13:50.820Z,100620.56
2022-12-28T00:16:41.686Z,100618.75
2022-12-28T00:19:29.743Z,100612.16
2022-12-28T00:22:17.709Z,100612.03
2022-12-28T00:25:06.630Z,100606.44
2022-12-28T00:27:54.568Z,100593.06
2022-12-28T00:30:42.532Z,100594.84
2022-12-28T00:33:31.900Z,100592.91
2022-12-28T00:36:20.025Z,100584.56
2022-12-28T00:39:08.653Z,100581.88
2022-12-28T00:41:56.585Z,100584.38
2022-12-28T00:44:44.966Z,100575.00
2022-12-28T00:47:32.882Z,100573.69
2022-12-28T00:50:22.183Z,100567.38
2022-12-28T00:53:10.218Z,100561.19
2022-12-28T00:56:05.785Z,100560.16
2022-12-28T00:58:58.297Z,100537.75
2022-12-28T01:01:46.336Z,100537.69
2022-12-28T01:04:35.289Z,100528.59
2022-12-28T01:07:24.547Z,100524.56
2022-12-28T01:10:12.527Z,100517.53
2022-12-28T01:13:00.451Z,100519.63
2022-12-28T01:15:48.402Z,100516.66
2022-12-28T01:18:36.375Z,100505.06
2022-12-28T01:21:26.035Z,100496.03
2022-12-28T01:24:15.318Z,100484.78
2022-12-28T01:27:03.256Z,100480.56
2022-12-28T01:29:51.611Z,100486.81
2022-12-28T01:32:39.559Z,100491.44
2022-12-28T01:35:28.571Z,100488.91
2022-12-28T01:38:16.512Z,100477.19
2022-12-28T01:41:07.907Z,100476.59
2022-12-28T01:44:44.953Z,100468.66
2022-12-28T01:47:36.613Z,100481.28
2022-12-28T01:50:28.061Z,100480.88
2022-12-28T01:53:16.627Z,100489.06
2022-12-28T01:56:06.475Z,100482.69
2022-12-28T01:58:55.874Z,100481.38
2022-12-28T02:01:44.407Z,100482.19
2022-12-28T02:04:32.394Z,100480.72
2022-12-28T02:07:31.096Z,100464.97
2022-12-28T02:10:44.188Z,100454.41
2022-12-28T02:13:29.818Z,100444.53
2022-12-28T02:16:18.900Z,100430.88
2022-12-28T02:19:10.263Z,100423.38
2022-12-28T02:22:14.662Z,100423.31
2022-12-28T02:25:25.753Z,100439.63
2022-12-28T02:28:30.988Z,100435.50
2022-12-28T02:31:27.907Z,100451.41
2022-12-28T02:34:23.798Z,100438.81
2022-12-28T02:37:17.250Z,100433.09
2022-12-28T02:40:10.586Z,100428.22
2022-12-28T02:42:59.018Z,100429.44
2022-12-28T02:46:06.091Z,100433.50
2022-12-28T02:49:12.933Z,100424.72
2022-12-28T02:52:09.699Z,100426.03
2022-12-28T02:55:38.939Z,100422.63
2022-12-28T02:58:55.915Z,100425.31
2022-12-28T03:02:05.555Z,100421.38
2022-12-28T03:05:11.521Z,100416.75
2022-12-28T03:08:20.137Z,100400.94
2022-12-28T03:11:16.020Z,100396.28
2022-12-28T03:14:09.147Z,100404.81
2022-12-28T03:17:18.510Z,100402.25
2022-12-28T03:20:30.196Z,100398.97
2022-12-28T03:23:41.747Z,100391.28
2022-12-28T03:26:50.768Z,100402.25
2022-12-28T03:30:01.725Z,100388.09
2022-12-28T03:32:51.633Z,100371.31
2022-12-28T03:35:47.039Z,100373.97
2022-12-28T03:38:45.006Z,100359.16
2022-12-28T03:41:38.815Z,100368.31
2022-12-28T03:44:52.725Z,100365.22
2022-12-28T03:47:43.501Z,100359.09
2022-12-28T03:50:35.924Z,100358.06
2022-12-28T03:53:30.123Z,100319.63
2022-12-28T03:56:21.467Z,100353.91
2022-12-28T03:59:10.492Z,100342.16
2022-12-28T04:02:02.888Z,100348.69
2022-12-28T04:04:52.843Z,100335.28
2022-12-28T04:07:40.909Z,100334.63
2022-12-28T04:10:30.284Z,100328.84
2022-12-28T04:13:19.363Z,100323.88
2022-12-28T04:16:14.769Z,100317.72
2022-12-28T04:19:04.384Z,100316.13
2022-12-28T04:21:52.736Z,100317.16
2022-12-28T04:24:41.576Z,100303.91
2022-12-28T04:27:31.075Z,100311.59
2022-12-28T04:30:24.111Z,100307.13
2022-12-28T04:33:12.234Z,100299.25
2022-12-28T04:36:06.876Z,100305.31
2022-12-28T04:38:55.350Z,100306.41
2022-12-28T04:41:43.307Z,100306.94
2022-12-28T04:44:33.444Z,100308.50
2022-12-28T04:47:21.462Z,100304.75
2022-12-28T04:50:09.952Z,100315.50
2022-12-28T04:52:59.139Z,100308.88
2022-12-28T04:55:47.284Z,100312.03
2022-12-28T04:58:35.242Z,100309.41
2022-12-28T05:01:24.619Z,100311.47
2022-12-28T05:04:12.769Z,100303.53
2022-12-28T05:07:00.673Z,100302.34
2022-12-28T05:09:48.597Z,100304.28
2022-12-28T05:12:36.568Z,100307.00
2022-12-28T05:15:24.515Z,100312.69
2022-12-28T05:18:13.747Z,100310.56
2022-12-28T05:21:04.615Z,100294.56
2022-12-28T05:23:53.922Z,100295.50
2022-12-28T05:26:41.954Z,100263.22
2022-12-28T05:29:29.957Z,100271.97
2022-12-28T05:32:18.065Z,100273.69
2022-12-28T05:35:09.039Z,100269.69
2022-12-28T05:37:56.947Z,100267.59
2022-12-28T05:40:44.906Z,100266.56
2022-12-28T05:43:33.028Z,100260.19
2022-12-28T05:46:24.158Z,100266.75
2022-12-28T05:49:12.250Z,100262.66
2022-12-28T05:52:01.889Z,100260.38
2022-12-28T05:54:49.802Z,100254.22
2022-12-28T05:57:37.740Z,100252.81
2022-12-28T06:00:25.763Z,100251.03
2022-12-28T06:03:13.749Z,100249.50
2022-12-28T06:06:09.828Z,100227.56
2022-12-28T06:08:59.373Z,100231.69
2022-12-28T06:11:47.470Z,100249.00
2022-12-28T06:14:35.390Z,100246.47
2022-12-28T06:17:23.301Z,100243.94
2022-12-28T06:20:12.221Z,100246.25
2022-12-28T06:23:00.119Z,100249.91
2022-12-28T06:25:49.389Z,100244.66
2022-12-28T06:28:37.977Z,100245.81
2022-12-28T06:31:28.213Z,100232.81
2022-12-28T06:34:16.166Z,100233.53
2022-12-28T06:37:04.341Z,100240.09
2022-12-28T06:39:52.250Z,100232.72
2022-12-28T06:42:41.499Z,100228.97
2022-12-28T06:45:29.474Z,100227.59
2022-12-28T06:48:17.469Z,100215.97
2022-12-28T06:51:07.224Z,100209.84
2022-12-28T06:53:55.803Z,100194.56
2022-12-28T06:56:43.689Z,100212.13
2022-12-28T06:59:32.964Z,100211.09
2022-12-28T07:02:21.074Z,100202.31
2022-12-28T07:04:48.755Z,100205.25
2022-12-28T07:07:16.387Z,100205.03
2022-12-28T07:09:44.676Z,100146.34
2022-12-28T07:12:12.411Z,100205.81
2022-12-28T07:14:41.458Z,100196.72
2022-12-28T07:17:09.180Z,100203.56
2022-12-28T07:19:36.797Z,100206.59
2022-12-28T07:22:04.435Z,100202.78
2022-12-28T07:24:32.080Z,100201.16
2022-12-28T07:26:59.688Z,100205.81
2022-12-28T07:29:27.381Z,100200.22
2022-12-28T07:31:56.611Z,100171.44
2022-12-28T07:34:24.712Z,100203.88
2022-12-28T07:36:52.428Z,100187.25
2022-12-28T07:39:20.201Z,100190.59
2022-12-28T07:41:47.830Z,100198.72
2022-12-28T07:44:23.827Z,100185.25
2022-12-28T07:46:53.174Z,100192.78
2022-12-28T07:49:22.165Z,100194.91
2022-12-28T07:51:50.002Z,100189.66
2022-12-28T07:54:17.616Z,100191.03
2022-12-28T07:56:45.244Z,100093.63
2022-12-28T07:59:14.172Z,100179.06
2022-12-28T08:01:41.920Z,100176.63
2022-12-28T08:04:13.154Z,100171.16
2022-12-28T08:06:44.164Z,100173.16
2022-12-28T08:09:14.115Z,100169.53
2022-12-28T08:11:43.603Z,100170.06
2022-12-28T08:14:12.489Z,100174.38
2022-12-28T08:16:42.360Z,100173.38
2022-12-28T08:19:10.654Z,100164.47
2022-12-28T08:21:40.737Z,100163.38
2022-12-28T08:24:14.182Z,100167.06
2022-12-28T08:26:42.309Z,100162.59
2022-12-28T08:29:12.334Z,100164.47
2022-12-28T08:31:42.077Z,100160.66
2022-12-28T08:34:13.818Z,100141.59
2022-12-28T08:36:41.772Z,100163.78
2022-12-28T08:39:10.967Z,100159.34
2022-12-28T08:41:38.860Z,100148.66
2022-12-28T08:44:07.218Z,100153.44
2022-12-28T08:46:37.028Z,100152.13
2022-12-28T08:49:05.762Z,100165.84
2022-12-28T08:51:35.255Z,100157.00
2022-12-28T08:54:04.089Z,100153.59
2022-12-28T08:56:35.008Z,100154.75
2022-12-28T08:59:02.997Z,100173.34
2022-12-28T09:01:38.954Z,100161.69
2022-12-28T09:04:15.220Z,100163.81
2022-12-28T09:06:43.192Z,100158.41
2022-12-28T09:09:13.164Z,100161.38
2022-12-28T09:11:42.215Z,100163.16
2022-12-28T09:14:18.477Z,100166.47
2022-12-28T09:16:50.157Z,100170.53
2022-12-28T09:19:17.819Z,100160.59
2022-12-28T09:21:48.859Z,100158.91
2022-12-28T09:24:16.575Z,100169.31
2022-12-28T09:26:45.759Z,100159.28
2022-12-28T09:29:14.657Z,100149.31
2022-12-28T09:31:44.296Z,100147.69
2022-12-28T09:37:01.372Z,100146.13
2022-12-28T09:39:29.555Z,100118.53
2022-12-28T09:42:01.368Z,100148.72
2022-12-28T09:44:41.066Z,100160.38
2022-12-28T09:47:18.441Z,100141.41
2022-12-28T09:49:56.952Z,100141.66
2022-12-28T09:52:29.783Z,100120.13
2022-12-28T09:55:06.127Z,100139.56
2022-12-28T09:57:38.774Z,100136.13
2022-12-28T10:00:15.869Z,100128.19
2022-12-28T10:02:49.093Z,100127.31
2022-12-28T10:05:17.036Z,100131.22
2022-12-28T10:07:44.823Z,100137.22
2022-12-28T10:10:17.463Z,100129.41
2022-12-28T10:12:47.792Z,100129.53
2022-12-28T10:15:15.977Z,100130.56
2022-12-28T10:17:44.626Z,100133.00
2022-12-28T10:20:17.776Z,100139.75
2022-12-28T10:22:50.263Z,100123.28
2022-12-28T10:25:20.555Z,100127.81
2022-12-28T10:27:50.419Z,100129.91
2022-12-28T10:30:20.811Z,100122.84
2022-12-28T10:32:58.048Z,100109.56
2022-12-28T10:35:33.185Z,100111.88
2022-12-28T10:38:04.521Z,100100.03
2022-12-28T10:40:34.618Z,100101.38
2022-12-28T10:43:10.107Z,100095.78
2022-12-28T10:45:42.047Z,100089.41
2022-12-28T10:48:15.622Z,100090.84
2022-12-28T10:50:52.468Z,100083.16
2022-12-28T10:53:26.335Z,100079.81
2022-12-28T10:56:06.704Z,100076.91
2022-12-28T10:58:35.900Z,100073.72
2022-12-28T11:01:08.650Z,100076.75
2022-12-28T11:03:38.363Z,100064.53
2022-12-28T11:06:22.732Z,100049.53
2022-12-28T11:09:04.664Z,100059.13
2022-12-28T11:11:32.550Z,100050.50
2022-12-28T11:14:05.507Z,100047.56
2022-12-28T11:16:37.802Z,100034.84
2022-12-28T11:19:05.811Z,100041.63
2022-12-28T11:21:35.906Z,100037.53
2022-12-28T11:24:05.284Z,100024.22
2022-12-28T11:26:34.668Z,100021.53
2022-12-28T11:29:03.702Z,100024.91
2022-12-28T11:31:36.058Z,100024.94
2022-12-28T11:34:07.302Z,100013.19
2022-12-28T11:36:40.471Z,100001.75
2022-12-28T11:39:44.683Z,100001.97
2022-12-28T11:42:39.078Z,100000.38
2022-12-28T11:45:03.013Z,99998.13
2022-12-28T11:47:33.894Z,99994.81
2022-12-28T11:50:42.317Z,99999.78
2022-12-28T11:53:54.855Z,99979.97
2022-12-28T11:56:24.407Z,99951.69
2022-12-28T11:59:23.085Z,99989.84
2022-12-28T12:01:54.244Z,99994.72
2022-12-28T12:04:43.299Z,99980.13
2022-12-28T12:07:30.598Z,99966.56
2022-12-28T12:10:21.156Z,99964.78
2022-12-28T12:12:51.381Z,99961.75
2022-12-28T12:15:21.470Z,99931.75
2022-12-28T12:17:56.053Z,99961.44
2022-12-28T12:20:45.319Z,99946.75
2022-12-28T12:23:24.573Z,99950.88
2022-12-28T12:25:54.624Z,99934.91
2022-12-28T12:28:34.020Z,99935.75
2022-12-28T12:31:04.020Z,99926.28
2022-12-28T12:33:36.858Z,99924.28
2022-12-28T12:36:21.332Z,99917.81
2022-12-28T12:39:08.743Z,99922.88
2022-12-28T12:41:46.841Z,99908.03
2022-12-28T12:44:24.424Z,99902.81
2022-12-28T12:47:21.531Z,99899.84
2022-12-28T12:50:19.562Z,99894.50
2022-12-28T12:52:55.747Z,99894.50
2022-12-28T12:55:39.746Z,99892.09
2022-12-28T12:58:17.475Z,99877.56
2022-12-28T13:00:51.941Z,99892.41
2022-12-28T13:03:29.298Z,99888.75
2022-12-28T13:05:59.404Z,99874.50
2022-12-28T13:08:32.177Z,99885.72
2022-12-28T13:10:59.936Z,99880.78
2022-12-28T13:13:32.087Z,99884.56
2022-12-28T13:16:03.905Z,99878.28
2022-12-28T13:18:48.106Z,99887.66
2022-12-28T13:21:22.043Z,99877.59
2022-12-28T13:23:51.840Z,99877.16
2022-12-28T13:26:24.450Z,99875.13
2022-12-28T13:28:56.747Z,99872.78
2022-12-28T13:31:30.051Z,99852.44
2022-12-28T13:33:59.528Z,99883.50
2022-12-28T13:36:28.870Z,99874.69
2022-12-28T13:39:12.629Z,99857.94
2022-12-28T13:41:48.063Z,99851.00
2022-12-28T13:44:48.419Z,99853.00
2022-12-28T13:47:23.134Z,99807.25
2022-12-28T13:49:57.802Z,99844.41
2022-12-28T13:52:31.935Z,99836.16
2022-12-28T13:55:04.522Z,99830.22
2022-12-28T13:57:57.414Z,99830.63
2022-12-28T14:00:24.065Z,99830.34
2022-12-28T14:02:54.912Z,99826.88
2022-12-28T14:05:25.982Z,99824.94
2022-12-28T14:07:57.287Z,99824.19
2022-12-28T14:10:25.599Z,99816.28
2022-12-28T14:12:54.688Z,99817.44
2022-12-28T14:15:23.225Z,99812.06
2022-12-28T14:17:52.513Z,99807.19
2022-12-28T14:20:20.363Z,99811.53
2022-12-28T14:22:48.141Z,99802.88
2022-12-28T14:25:19.588Z,99812.31
2022-12-28T14:27:57.351Z,99796.72
2022-12-28T14:30:27.625Z,99792.25
2022-12-28T14:32:55.908Z,99797.50
2022-12-28T14:35:25.705Z,99791.94
2022-12-28T14:37:55.632Z,99762.81
2022-12-28T14:40:29.034Z,99784.16
2022-12-28T14:42:57.679Z,99795.16
2022-12-28T14:46:05.872Z,99782.22
2022-12-28T14:48:33.395Z,99781.03
2022-12-28T14:51:03.814Z,99728.97
2022-12-28T14:53:32.084Z,99771.75
2022-12-28T14:56:06.173Z,99769.41
2022-12-28T14:58:47.893Z,99764.31
2022-12-28T15:01:20.596Z,99763.41
2022-12-28T15:03:50.904Z,99764.63
2022-12-28T15:06:19.985Z,99760.09
2022-12-28T15:08:49.663Z,99762.59
2022-12-28T15:11:20.423Z,99759.75
2022-12-28T15:13:49.072Z,99753.88
2022-12-28T15:16:18.383Z,99757.09
2022-12-28T15:18:46.475Z,99751.13
2022-12-28T15:21:17.292Z,99756.41
2022-12-28T15:23:48.844Z,99747.66
2022-12-28T15:26:16.487Z,99757.34
2022-12-28T15:28:45.522Z,99747.25
2022-12-28T15:31:15.197Z,99724.84
2022-12-28T15:33:42.921Z,99731.53
2022-12-28T15:36:17.335Z,99738.28
2022-12-28T15:38:46.061Z,99728.31
2022-12-28T15:41:27.862Z,99729.19
2022-12-28T15:43:56.864Z,99724.09
2022-12-28T15:46:24.677Z,99718.25
2022-12-28T15:48:52.489Z,99721.41
2022-12-28T15:51:20.442Z,99710.34
2022-12-28T15:53:48.180Z,99714.97
2022-12-28T15:56:21.630Z,99716.34
2022-12-28T15:58:49.402Z,99720.59
2022-12-28T16:01:18.542Z,99708.06
2022-12-28T16:03:46.273Z,99707.50
2022-12-28T16:06:13.942Z,99702.03
2022-12-28T16:08:41.925Z,99703.31
2022-12-28T16:11:11.012Z,99662.59
2022-12-28T16:13:38.719Z,99687.88
2022-12-28T16:16:07.003Z,99685.94
2022-12-28T16:18:36.249Z,99687.38
2022-12-28T16:21:06.102Z,99676.41
2022-12-28T16:23:36.294Z,99683.63
2022-12-28T16:26:04.952Z,99685.56
2022-12-28T16:28:32.832Z,99687.88
2022-12-28T16:31:00.540Z,99684.81
2022-12-28T16:33:28.865Z,99681.22
2022-12-28T16:35:59.871Z,99679.66
2022-12-28T16:38:30.421Z,99678.13
2022-12-28T16:40:58.172Z,99679.81
2022-12-28T16:43:25.878Z,99673.75
2022-12-28T16:45:54.639Z,99694.28
2022-12-28T16:48:22.318Z,99688.41
2022-12-28T16:50:59.732Z,99687.72
2022-12-28T16:53:27.843Z,99686.53
2022-12-28T16:55:56.460Z,99688.88
2022-12-28T16:58:24.101Z,99692.38
2022-12-28T17:00:52.611Z,99684.53
2022-12-28T17:03:20.455Z,99688.53
2022-12-28T17:05:50.911Z,99690.31
2022-12-28T17:08:20.304Z,99686.16
2022-12-28T17:10:48.195Z,99683.78
2022-12-28T17:13:16.309Z,99686.59
2022-12-28T17:15:45.738Z,99694.88
2022-12-28T17:18:13.658Z,99687.00
2022-12-28T17:20:42.075Z,99683.00
2022-12-28T17:23:09.897Z,99675.63
2022-12-28T17:25:38.887Z,99670.41
2022-12-28T17:28:06.578Z,99665.41
2022-12-28T17:30:34.945Z,99666.56
2022-12-28T17:33:02.655Z,99659.47
2022-12-28T17:35:30.507Z,99650.03
2022-12-28T17:37:58.391Z,99642.13
2022-12-28T17:40:26.039Z,99645.53
2022-12-28T17:42:55.135Z,99646.34
2022-12-28T17:45:22.847Z,99637.81
2022-12-28T17:47:50.549Z,99632.66
2022-12-28T17:50:19.985Z,99627.94
2022-12-28T17:52:47.637Z,99623.25
2022-12-28T17:55:15.551Z,99535.31
2022-12-28T17:57:43.235Z,99621.34
2022-12-28T18:00:13.804Z,99615.00
2022-12-28T18:02:41.909Z,99609.53
2022-12-28T18:05:10.536Z,99602.75
2022-12-28T18:07:38.192Z,99597.63
2022-12-28T18:10:06.644Z,99587.06
2022-12-28T18:12:34.393Z,99584.34
2022-12-28T18:15:02.092Z,99571.38
2022-12-28T18:17:31.307Z,99565.81
2022-12-28T18:19:58.965Z,99567.47
2022-12-28T18:22:26.689Z,99557.16
2022-12-28T18:24:54.740Z,99549.78
2022-12-28T18:27:22.456Z,99545.09
2022-12-28T18:29:51.997Z,99532.91
2022-12-28T18:32:19.823Z,99541.13
2022-12-28T18:34:48.825Z,99523.00
2022-12-28T18:37:16.468Z,99520.72
2022-12-28T18:39:44.122Z,99531.63
2022-12-28T18:42:11.820Z,99523.47
2022-12-28T18:44:39.476Z,99516.31
2022-12-28T18:47:07.141Z,99517.50
2022-12-28T18:49:34.773Z,99523.38
2022-12-28T18:52:04.185Z,99529.72
2022-12-28T18:54:32.012Z,99531.38
2022-12-28T18:56:59.739Z,99524.38
2022-12-28T18:59:27.536Z,99522.81
2022-12-28T19:02:06.361Z,99510.94
2022-12-28T19:04:34.967Z,99514.53
2022-12-28T19:07:04.316Z,99511.47
2022-12-28T19:09:32.168Z,99513.81
2022-12-28T19:12:00.008Z,99511.91
2022-12-28T19:14:27.769Z,99512.31
2022-12-28T19:16:55.410Z,99511.19
2022-12-28T19:19:23.116Z,99501.78
2022-12-28T19:21:56.541Z,99497.81
2022-12-28T19:24:27.702Z,99496.63
2022-12-28T19:26:55.409Z,99488.44
2022-12-28T19:29:23.781Z,99488.03
2022-12-28T19:31:51.797Z,99479.78
2022-12-28T19:34:19.551Z,99471.16
2022-12-28T19:36:47.277Z,99482.94
2022-12-28T19:39:14.975Z,99482.16
2022-12-28T19:41:44.166Z,99480.19
2022-12-28T19:44:12.016Z,99478.25
2022-12-28T19:46:39.744Z,99475.50
2022-12-28T19:49:07.426Z,99486.13
2022-12-28T19:51:35.403Z,99473.94
2022-12-28T19:54:03.401Z,99459.38
2022-12-28T19:56:31.806Z,99468.44
2022-12-28T19:59:06.209Z,99469.22
2022-12-28T20:01:36.580Z,99476.31
2022-12-28T20:04:12.297Z,99460.97
2022-12-28T20:06:40.871Z,99462.53
2022-12-28T20:09:08.839Z,99454.66
2022-12-28T20:11:36.819Z,99453.09
2022-12-28T20:14:07.016Z,99444.84
2022-12-28T20:16:36.072Z,99446.81
2022-12-28T20:19:06.598Z,99442.88
2022-12-28T20:21:35.664Z,99442.91
2022-12-28T20:24:03.715Z,99431.06
2022-12-28T20:26:32.608Z,99427.94
2022-12-28T20:29:01.347Z,99424.38
2022-12-28T20:31:30.953Z,99425.97
2022-12-28T20:33:58.877Z,99416.16
2022-12-28T20:36:28.497Z,99418.50
2022-12-28T20:38:57.349Z,99417.28
2022-12-28T20:41:45.545Z,99400.78
2022-12-28T20:44:15.675Z,99412.22
2022-12-28T20:46:45.410Z,99396.88
2022-12-28T20:49:14.037Z,99400.41
2022-12-28T20:51:42.264Z,99396.47
2022-12-28T20:54:10.595Z,99401.16
2022-12-28T20:56:38.598Z,99403.53
2022-12-28T20:59:07.261Z,99395.69
2022-12-28T21:01:36.055Z,99390.16
2022-12-28T21:04:24.791Z,99398.06
2022-12-28T21:07:13.067Z,99394.91
2022-12-28T21:10:01.037Z,99388.22
2022-12-28T21:12:48.985Z,99379.94
2022-12-28T21:15:40.699Z,99390.97
2022-12-28T21:18:28.617Z,99381.91
2022-12-28T21:21:19.814Z,99379.19
2022-12-28T21:24:08.298Z,99379.16
2022-12-28T21:26:56.297Z,99371.66
2022-12-28T21:29:44.252Z,99373.25
2022-12-28T21:32:32.235Z,99381.50
2022-12-28T21:35:20.182Z,99371.69
2022-12-28T21:38:09.521Z,99367.38
2022-12-28T21:40:59.297Z,99369.28
2022-12-28T21:43:47.249Z,99364.59
2022-12-28T21:46:35.372Z,99366.19
2022-12-28T21:49:23.365Z,99367.38
2022-12-28T21:52:11.352Z,99362.25
2022-12-28T21:55:21.179Z,99301.41
2022-12-28T21:58:09.358Z,99368.16
2022-12-28T22:01:17.969Z,99368.16
2022-12-28T22:04:23.508Z,99364.22
2022-12-28T22:07:14.906Z,99367.00
2022-12-28T22:10:22.773Z,99364.25
2022-12-28T22:13:10.741Z,99361.88
2022-12-28T22:15:58.774Z,99365.81
2022-12-28T22:19:02.154Z,99371.72
2022-12-28T22:21:50.940Z,99368.56
2022-12-28T22:24:38.865Z,99369.75
2022-12-28T22:27:28.289Z,99361.13
2022-12-28T22:30:16.345Z,99369.38
2022-12-28T22:33:04.748Z,99361.53
2022-12-28T22:35:52.640Z,99363.06
2022-12-28T22:38:40.828Z,99346.97
2022-12-28T22:41:28.837Z,99364.66
2022-12-28T22:44:18.174Z,99357.19
2022-12-28T22:47:06.254Z,99353.63
2022-12-28T22:49:54.279Z,99348.50
2022-12-28T22:52:42.557Z,99337.94
2022-12-28T22:55:30.481Z,99351.69
2022-12-28T22:58:18.409Z,99352.47
2022-12-28T23:01:10.539Z,99351.28
2022-12-28T23:03:58.529Z,99344.59
2022-12-28T23:06:46.645Z,99329.25
2022-12-28T23:09:34.758Z,99338.66
2022-12-28T23:12:22.726Z,99330.81
2022-12-28T23:15:19.410Z,99327.28
2022-12-28T23:18:22.752Z,99331.97
2022-12-28T23:21:35.703Z,99321.75
2022-12-28T23:24:41.495Z,99311.91
2022-12-28T23:27:34.498Z,99319.75
2022-12-28T23:30:23.274Z,99316.66
2022-12-28T23:33:12.690Z,99306.41
2022-12-28T23:36:02.567Z,99313.88
2022-12-28T23:38:51.690Z,99321.69
2022-12-28T23:41:48.928Z,99309.97
2022-12-28T23:44:36.931Z,99309.94
2022-12-28T23:47:24.941Z,99304.44
2022-12-28T23:50:16.081Z,99291.84
2022-12-28T23:53:04.047Z,99302.84
2022-12-28T23:55:51.953Z,99296.53
2022-12-28T23:58:39.929Z,99285.94
